ADDS METAR Data INFO
IDs: Format: Raw Decoded Include TAF

Data at: 2147 UTC 15 Dec 2017

KMWL 152053Z AUTO 35005KT 10SM CLR 13/M07 A3021 RMK AO2 SLP228 T01331072 56036
KMWL 151953Z AUTO VRB03KT 10SM CLR 12/M07 A3023 RMK AO2 SLP237 T01221067
KMWL 151853Z AUTO 00000KT 10SM CLR 11/M06 A3026 RMK AO2 SLP249 T01111056
KMWL 151753Z AUTO 36007KT 10SM CLR 11/M04 A3032 RMK AO2 SLP265 T01111044 10111 21006 58003
KMWL 151653Z AUTO 36006KT 10SM CLR 09/M03 A3032 RMK AO2 SLP268 T00891028
KMWL 151553Z AUTO 36008KT 10SM CLR 07/M02 A3034 RMK AO2 SLP273 T00721022
KMWL 151453Z AUTO 32005KT 10SM CLR 03/M02 A3033 RMK AO2 SLP271 T00331017 53013
KMWL 151353Z AUTO 29003KT 10SM CLR 01/M04 A3031 RMK AO2 SLP265 T00061039
KMWL 151253Z AUTO 32004KT 10SM CLR 01/M03 A3030 RMK AO2 SLP262 T00111033
KMWL 151153Z AUTO 32004KT 10SM CLR 00/M04 A3029 RMK AO2 SLP256 T00001039 10033 21011 53017
KMWL 151053Z AUTO 30005KT 10SM CLR 00/M04 A3025 RMK AO2 SLP245 T00001039
KMWL 150953Z AUTO 27005KT 10SM CLR 01/M04 A3026 RMK AO2 SLP245 T00061039
KMWL 150853Z AUTO 26005KT 10SM CLR 00/M04 A3023 RMK AO2 SLP237 T00001044 55000
KMWL 150753Z AUTO 27003KT 10SM CLR 02/M04 A3023 RMK AO2 SLP234 T00171044
KMWL 150653Z AUTO 25004KT 10SM CLR 01/M04 A3023 RMK AO2 SLP234 T00111044
KMWL 150553Z AUTO 00000KT 10SM CLR 03/M04 A3023 RMK AO2 SLP236 T00331044 10106 20028 401610006 50016
KMWL 150453Z AUTO 00000KT 10SM CLR 04/M04 A3024 RMK AO2 SLP240 T00391044
KMWL 150353Z AUTO 32003KT 10SM CLR 05/M04 A3022 RMK AO2 SLP234 T00501044
KMWL 150253Z AUTO 35003KT 10SM CLR 06/M04 A3019 RMK AO2 SLP221 T00561039 51029
KMWL 150153Z AUTO 35010KT 10SM CLR 07/M04 A3017 RMK AO2 SLP217 T00721039
KMWL 150053Z AUTO 35009KT 10SM CLR 09/M03 A3015 RMK AO2 SLP209 T00891033
KMWL 142353Z AUTO 35011KT 10SM CLR 11/M03 A3010 RMK AO2 SLP192 T01061033 10161 20106 51017
KMWL 142253Z AUTO 36013KT 10SM CLR 13/M04 A3008 RMK AO2 SLP184 T01281044
KMWL 142153Z AUTO 36015G22KT 10SM CLR 14/M06 A3007 RMK AO2 SLP179 T01441056
KMWL 142053Z AUTO 02012G19KT 10SM CLR 16/M05 A3005 RMK AO2 SLP173 T01561050 55010
KMWL 141953Z AUTO 02013G20KT 10SM CLR 16/M04 A3004 RMK AO2 SLP168 T01611044
KMWL 141853Z AUTO 01016G22KT 10SM CLR 16/M04 A3006 RMK AO2 SLP176 T01561044
KMWL 141753Z AUTO 02012G20KT 10SM CLR 15/M03 A3008 RMK AO2 SLP182 T01501033 10150 20011 50007
KMWL 141653Z AUTO 02013G19KT 10SM CLR 13/M03 A3010 RMK AO2 SLP188 T01331033
KMWL 141553Z AUTO 02012G19KT 10SM CLR 11/M03 A3008 RMK AO2 SLP185 T01061033
KMWL 141453Z AUTO 02008KT 10SM CLR 08/M04 A3006 RMK AO2 SLP177 T00781039 53032
KMWL 141353Z AUTO 35005KT 10SM CLR 03/M06 A3002 RMK AO2 SLP164 T00331056
KMWL 141253Z AUTO 36005KT 10SM CLR 02/M06 A2998 RMK AO2 SLP151 T00221061
KMWL 141153Z AUTO 33003KT 10SM CLR 01/M07 A2996 RMK AO2 SLP143 T00111067 10078 20006 53015
KMWL 141053Z AUTO 30003KT 10SM CLR 02/M07 A2993 RMK AO2 SLP130 T00171067
KMWL 140953Z AUTO 00000KT 10SM CLR 02/M07 A2991 RMK AO2 SLP125 T00171067